AAL811 PKMJ-PHNL
Flight info
| Callsign | AAL811 |
|---|---|
| Flight time | N/A |
| Altitude | 41000 |
| Route | MAJ R584 CHOKO OPACA4 |
| Aircraft | B788/H-L/1101 |
Departure
| Time | 2026-05-07 07:51 |
|---|---|
| Airport | Marshall Islands International Airport (PKMJ) |
Arrival
| Time | N/A |
|---|---|
| Airport | Daniel K. Inouye International Airport (PHNL) |
| Time | Latitude | Longitude | Altitude | Speed | Heading |
|---|---|---|---|---|---|
| 2026-05-07 07:51 | 7.06225 | 171.26220 | 19 ft | 0 kts | 76° |
| 2026-05-07 07:51 | 7.06246 | 171.26306 | 19 ft | 55 kts | 76° |
| 2026-05-07 07:51 | 7.06430 | 171.27054 | 20 ft | 160 kts | 76° |
| 2026-05-07 07:51 | 7.06724 | 171.28203 | 1023 ft | 167 kts | 74° |
| 2026-05-07 07:52 | 7.07277 | 171.29191 | 2100 ft | 163 kts | 56° |
| 2026-05-07 07:52 | 7.07965 | 171.30133 | 3035 ft | 169 kts | 54° |
| 2026-05-07 07:52 | 7.08662 | 171.31143 | 3738 ft | 185 kts | 56° |
| 2026-05-07 07:52 | 7.09393 | 171.32305 | 4381 ft | 205 kts | 59° |
| 2026-05-07 07:53 | 7.10138 | 171.33561 | 5077 ft | 221 kts | 60° |
| 2026-05-07 07:53 | 7.10946 | 171.34972 | 5753 ft | 240 kts | 62° |
| 2026-05-07 07:53 | 7.11793 | 171.36477 | 6511 ft | 254 kts | 62° |
| 2026-05-07 07:53 | 7.12680 | 171.38071 | 7337 ft | 265 kts | 63° |
| 2026-05-07 07:54 | 7.13594 | 171.39725 | 8195 ft | 274 kts | 63° |
| 2026-05-07 07:54 | 7.14532 | 171.41427 | 9081 ft | 282 kts | 63° |
| 2026-05-07 07:54 | 7.15493 | 171.43174 | 9965 ft | 289 kts | 62° |
| 2026-05-07 07:54 | 7.16484 | 171.44978 | 10681 ft | 303 kts | 62° |
| 2026-05-07 07:55 | 7.17536 | 171.46895 | 11221 ft | 322 kts | 62° |
| 2026-05-07 07:55 | 7.18650 | 171.48925 | 11752 ft | 341 kts | 62° |
| 2026-05-07 07:55 | 7.19832 | 171.51076 | 12248 ft | 360 kts | 62° |
| 2026-05-07 07:55 | 7.21080 | 171.53347 | 12712 ft | 379 kts | 61° |
| 2026-05-07 07:56 | 7.22383 | 171.55720 | 13121 ft | 399 kts | 61° |
| 2026-05-07 07:56 | 7.23753 | 171.58215 | 13623 ft | 414 kts | 61° |
| 2026-05-07 07:56 | 7.25165 | 171.60787 | 14289 ft | 423 kts | 61° |
| 2026-05-07 07:56 | 7.26610 | 171.63419 | 14971 ft | 432 kts | 61° |
| 2026-05-07 07:57 | 7.28077 | 171.66087 | 15635 ft | 439 kts | 61° |
| 2026-05-07 07:57 | 7.29558 | 171.68785 | 16461 ft | 442 kts | 61° |
| 2026-05-07 07:57 | 7.31056 | 171.71517 | 17250 ft | 445 kts | 62° |
| 2026-05-07 07:57 | 7.32553 | 171.74248 | 17966 ft | 450 kts | 61° |
| 2026-05-07 07:58 | 7.34078 | 171.77033 | 18609 ft | 455 kts | 61° |
| 2026-05-07 07:58 | 7.35615 | 171.79840 | 19202 ft | 461 kts | 61° |
| 2026-05-07 07:58 | 7.37164 | 171.82667 | 19782 ft | 466 kts | 61° |
| 2026-05-07 07:58 | 7.38736 | 171.85535 | 20361 ft | 471 kts | 61° |
| 2026-05-07 07:59 | 7.40331 | 171.88447 | 20946 ft | 475 kts | 61° |
| 2026-05-07 07:59 | 7.41932 | 171.91372 | 21514 ft | 479 kts | 61° |
| 2026-05-07 07:59 | 7.43554 | 171.94334 | 22046 ft | 483 kts | 61° |
| 2026-05-07 07:59 | 7.44571 | 171.96193 | 22361 ft | 486 kts | 61° |
| 2026-05-07 08:00 | 7.46619 | 171.99933 | 22959 ft | 491 kts | 61° |
| 2026-05-07 08:00 | 7.48280 | 172.02969 | 23420 ft | 495 kts | 61° |
| 2026-05-07 08:00 | 7.49945 | 172.06012 | 23896 ft | 499 kts | 61° |
| 2026-05-07 08:00 | 7.51636 | 172.09101 | 24374 ft | 502 kts | 61° |
| 2026-05-07 08:01 | 7.53327 | 172.12194 | 24829 ft | 506 kts | 61° |
| 2026-05-07 08:01 | 7.55054 | 172.15353 | 25259 ft | 509 kts | 61° |
| 2026-05-07 08:01 | 7.56772 | 172.18495 | 25648 ft | 514 kts | 61° |
| 2026-05-07 08:01 | 7.58502 | 172.21660 | 26028 ft | 518 kts | 61° |
| 2026-05-07 08:02 | 7.60248 | 172.24854 | 26415 ft | 522 kts | 61° |
| 2026-05-07 08:02 | 7.61982 | 172.28028 | 26773 ft | 526 kts | 61° |
| 2026-05-07 08:02 | 7.63753 | 172.31268 | 27091 ft | 531 kts | 62° |
| 2026-05-07 08:02 | 7.65551 | 172.34557 | 27577 ft | 533 kts | 62° |
| 2026-05-07 08:03 | 7.67338 | 172.37829 | 28047 ft | 536 kts | 62° |
| 2026-05-07 08:03 | 7.69143 | 172.41138 | 28486 ft | 539 kts | 62° |
| 2026-05-07 08:03 | 7.70959 | 172.44469 | 28901 ft | 543 kts | 62° |
| 2026-05-07 08:03 | 7.72792 | 172.47829 | 29332 ft | 547 kts | 62° |
| 2026-05-07 08:04 | 7.74616 | 172.51175 | 29859 ft | 548 kts | 62° |
| 2026-05-07 08:04 | 7.76460 | 172.54557 | 30443 ft | 547 kts | 62° |
| 2026-05-07 08:04 | 7.78295 | 172.57921 | 31037 ft | 546 kts | 63° |
| 2026-05-07 08:04 | 7.80127 | 172.61281 | 31655 ft | 545 kts | 63° |
| 2026-05-07 08:05 | 7.81920 | 172.64570 | 32274 ft | 542 kts | 63° |
| 2026-05-07 08:05 | 7.83763 | 172.67956 | 32839 ft | 542 kts | 63° |
| 2026-05-07 08:05 | 7.85557 | 172.71251 | 33371 ft | 541 kts | 63° |
| 2026-05-07 08:05 | 7.87368 | 172.74579 | 33908 ft | 541 kts | 63° |
| 2026-05-07 08:06 | 7.89173 | 172.77898 | 34433 ft | 541 kts | 62° |
| 2026-05-07 08:06 | 7.90984 | 172.81227 | 34962 ft | 540 kts | 62° |
| 2026-05-07 08:06 | 7.92792 | 172.84550 | 35533 ft | 538 kts | 62° |
| 2026-05-07 08:06 | 7.93983 | 172.86739 | 35888 ft | 538 kts | 62° |
| 2026-05-07 08:07 | 7.95781 | 172.90043 | 36361 ft | 538 kts | 62° |
| 2026-05-07 08:07 | 7.97579 | 172.93349 | 36879 ft | 537 kts | 62° |
| 2026-05-07 08:07 | 7.99375 | 172.96652 | 37387 ft | 535 kts | 62° |
| 2026-05-07 08:07 | 8.01172 | 172.99958 | 37888 ft | 534 kts | 62° |
| 2026-05-07 08:08 | 8.02959 | 173.03245 | 38378 ft | 533 kts | 62° |
| 2026-05-07 08:08 | 8.04715 | 173.06478 | 38855 ft | 531 kts | 62° |
| 2026-05-07 08:08 | 8.06487 | 173.09739 | 39326 ft | 530 kts | 62° |
| 2026-05-07 08:08 | 8.08256 | 173.12998 | 39785 ft | 528 kts | 62° |
| 2026-05-07 08:09 | 8.10021 | 173.16248 | 40223 ft | 526 kts | 62° |
| 2026-05-07 08:09 | 8.11781 | 173.19492 | 40632 ft | 525 kts | 61° |
| 2026-05-07 08:09 | 8.13537 | 173.22726 | 40850 ft | 524 kts | 61° |
| 2026-05-07 08:09 | 8.15277 | 173.25933 | 40970 ft | 522 kts | 61° |
| 2026-05-07 08:10 | 8.17018 | 173.29142 | 40978 ft | 520 kts | 61° |
| 2026-05-07 08:10 | 8.20445 | 173.35464 | 40987 ft | 510 kts | 61° |
| 2026-05-07 08:11 | 8.23846 | 173.41736 | 41000 ft | 510 kts | 61° |
| 2026-05-07 08:11 | 8.27267 | 173.48052 | 40993 ft | 516 kts | 60° |
| 2026-05-07 08:12 | 8.30736 | 173.54458 | 40998 ft | 520 kts | 60° |
| 2026-05-07 08:12 | 8.34184 | 173.60827 | 40999 ft | 519 kts | 60° |
| 2026-05-07 08:13 | 8.37640 | 173.67215 | 40995 ft | 519 kts | 60° |
| 2026-05-07 08:13 | 8.41104 | 173.73622 | 41001 ft | 519 kts | 60° |
| 2026-05-07 08:14 | 8.44557 | 173.80010 | 40991 ft | 519 kts | 61° |
| 2026-05-07 08:14 | 8.48031 | 173.86441 | 41002 ft | 520 kts | 61° |
| 2026-05-07 08:15 | 8.51476 | 173.92823 | 40996 ft | 520 kts | 61° |
| 2026-05-07 08:15 | 8.54934 | 173.99230 | 40992 ft | 519 kts | 61° |
| 2026-05-07 08:16 | 8.58393 | 174.05641 | 41004 ft | 520 kts | 61° |
| 2026-05-07 08:16 | 8.61862 | 174.12075 | 40990 ft | 520 kts | 61° |
| 2026-05-07 08:17 | 8.65316 | 174.18486 | 41001 ft | 520 kts | 61° |
| 2026-05-07 08:17 | 8.68762 | 174.24883 | 40999 ft | 520 kts | 61° |
| 2026-05-07 08:18 | 8.72237 | 174.31336 | 40991 ft | 518 kts | 61° |
| 2026-05-07 08:18 | 8.75679 | 174.37733 | 41003 ft | 518 kts | 61° |
| 2026-05-07 08:19 | 8.79099 | 174.44094 | 40996 ft | 517 kts | 61° |
| 2026-05-07 08:19 | 8.82548 | 174.50510 | 40991 ft | 515 kts | 61° |
| 2026-05-07 08:20 | 8.85950 | 174.56842 | 41007 ft | 517 kts | 61° |
| 2026-05-07 08:20 | 8.89383 | 174.63233 | 40991 ft | 516 kts | 61° |
| 2026-05-07 08:21 | 8.92809 | 174.69617 | 40999 ft | 516 kts | 61° |
| 2026-05-07 08:21 | 8.96238 | 174.76008 | 40998 ft | 517 kts | 61° |
| 2026-05-07 08:22 | 8.99634 | 174.82342 | 40981 ft | 507 kts | 61° |
| 2026-05-07 08:22 | 9.03000 | 174.88621 | 41005 ft | 515 kts | 61° |
| 2026-05-07 08:23 | 9.06431 | 174.95028 | 40999 ft | 519 kts | 62° |
| 2026-05-07 08:23 | 9.09867 | 175.01446 | 40988 ft | 517 kts | 62° |
| 2026-05-07 08:24 | 9.13298 | 175.07858 | 41003 ft | 518 kts | 62° |
| 2026-05-07 08:24 | 9.16742 | 175.14297 | 40994 ft | 518 kts | 62° |
| 2026-05-07 08:25 | 9.20151 | 175.20675 | 40994 ft | 517 kts | 62° |
| 2026-05-07 08:25 | 9.23573 | 175.27079 | 41004 ft | 518 kts | 62° |
| 2026-05-07 08:26 | 9.28697 | 175.36675 | 40983 ft | 513 kts | 62° |
| 2026-05-07 08:26 | 9.32105 | 175.43064 | 41006 ft | 518 kts | 62° |
| 2026-05-07 08:27 | 9.35525 | 175.49475 | 40991 ft | 516 kts | 62° |
| 2026-05-07 08:27 | 9.38941 | 175.55884 | 40997 ft | 516 kts | 62° |
| 2026-05-07 08:28 | 9.42328 | 175.62240 | 41002 ft | 517 kts | 62° |
| 2026-05-07 08:28 | 9.45737 | 175.68644 | 40991 ft | 516 kts | 62° |
| 2026-05-07 08:29 | 9.49146 | 175.75051 | 41003 ft | 517 kts | 62° |
| 2026-05-07 08:29 | 9.52562 | 175.81469 | 40993 ft | 520 kts | 62° |
| 2026-05-07 08:30 | 9.56005 | 175.87939 | 40997 ft | 518 kts | 63° |
| 2026-05-07 08:30 | 9.59392 | 175.94314 | 40994 ft | 511 kts | 63° |
| 2026-05-07 08:31 | 9.62758 | 176.00661 | 41005 ft | 513 kts | 63° |
| 2026-05-07 08:31 | 9.66148 | 176.07055 | 40996 ft | 514 kts | 63° |
| 2026-05-07 08:32 | 9.69535 | 176.13440 | 40993 ft | 513 kts | 63° |
| 2026-05-07 08:32 | 9.72891 | 176.19771 | 41005 ft | 514 kts | 63° |
| 2026-05-07 08:33 | 9.76304 | 176.26212 | 40991 ft | 514 kts | 63° |
| 2026-05-07 08:33 | 9.79682 | 176.32597 | 41000 ft | 520 kts | 63° |
| 2026-05-07 08:34 | 9.83109 | 176.39070 | 40999 ft | 520 kts | 63° |
| 2026-05-07 08:34 | 9.86519 | 176.45513 | 40989 ft | 518 kts | 63° |
| 2026-05-07 08:35 | 9.89909 | 176.51924 | 41005 ft | 520 kts | 63° |
| 2026-05-07 08:35 | 9.93331 | 176.58402 | 40993 ft | 520 kts | 63° |
| 2026-05-07 08:36 | 9.96739 | 176.64855 | 40994 ft | 518 kts | 63° |
| 2026-05-07 08:36 | 10.00141 | 176.71320 | 41007 ft | 514 kts | 61° |
| 2026-05-07 08:37 | 10.03485 | 176.77638 | 40992 ft | 513 kts | 63° |
| 2026-05-07 08:37 | 10.06875 | 176.84068 | 41005 ft | 518 kts | 63° |
| 2026-05-07 08:38 | 10.10270 | 176.90518 | 40989 ft | 517 kts | 63° |
| 2026-05-07 08:38 | 10.13654 | 176.96945 | 41000 ft | 516 kts | 63° |
| 2026-05-07 08:39 | 10.17028 | 177.03358 | 41000 ft | 517 kts | 63° |
| 2026-05-07 08:39 | 10.20415 | 177.09797 | 40989 ft | 517 kts | 63° |
| 2026-05-07 08:40 | 10.23801 | 177.16239 | 41003 ft | 517 kts | 63° |
| 2026-05-07 08:40 | 10.27185 | 177.22684 | 40992 ft | 520 kts | 63° |
| 2026-05-07 08:41 | 10.30600 | 177.29191 | 41000 ft | 522 kts | 63° |
| 2026-05-07 08:41 | 10.34007 | 177.35685 | 40995 ft | 518 kts | 62° |
| 2026-05-07 08:42 | 10.37396 | 177.42143 | 40999 ft | 519 kts | 62° |
| 2026-05-07 08:42 | 10.40790 | 177.48617 | 40997 ft | 520 kts | 62° |
| 2026-05-07 08:43 | 10.44170 | 177.55071 | 40992 ft | 519 kts | 62° |
| 2026-05-07 08:43 | 10.47561 | 177.61550 | 41004 ft | 519 kts | 62° |
| 2026-05-07 08:44 | 10.50951 | 177.68029 | 40992 ft | 519 kts | 62° |
| 2026-05-07 08:44 | 10.54340 | 177.74512 | 40997 ft | 519 kts | 62° |
| 2026-05-07 08:45 | 10.57703 | 177.80945 | 41001 ft | 515 kts | 63° |
| 2026-05-07 08:45 | 10.61059 | 177.87369 | 40987 ft | 507 kts | 64° |
| 2026-05-07 08:46 | 10.64336 | 177.93654 | 41003 ft | 509 kts | 64° |
| 2026-05-07 08:46 | 10.67661 | 178.00035 | 40998 ft | 511 kts | 64° |
| 2026-05-07 08:47 | 10.70986 | 178.06416 | 40990 ft | 509 kts | 64° |
| 2026-05-07 08:47 | 10.74307 | 178.12790 | 41004 ft | 509 kts | 64° |
| 2026-05-07 08:48 | 10.77625 | 178.19165 | 40992 ft | 511 kts | 64° |
| 2026-05-07 08:48 | 10.80979 | 178.25615 | 41001 ft | 517 kts | 63° |
| 2026-05-07 08:49 | 10.84329 | 178.32064 | 40994 ft | 513 kts | 62° |
| 2026-05-07 08:49 | 10.87666 | 178.38479 | 40996 ft | 512 kts | 62° |
| 2026-05-07 08:50 | 10.90441 | 178.43820 | 41005 ft | 514 kts | 63° |
| 2026-05-07 08:50 | 10.93780 | 178.50251 | 40991 ft | 514 kts | 63° |
| 2026-05-07 08:51 | 10.97085 | 178.56624 | 40999 ft | 512 kts | 63° |
| 2026-05-07 08:51 | 11.00417 | 178.63061 | 41006 ft | 511 kts | 61° |
| 2026-05-07 08:52 | 11.03688 | 178.69368 | 40969 ft | 500 kts | 62° |
| 2026-05-07 08:52 | 11.06959 | 178.75680 | 41001 ft | 509 kts | 63° |
| 2026-05-07 08:53 | 11.10296 | 178.82127 | 40994 ft | 518 kts | 63° |
| 2026-05-07 08:53 | 11.13660 | 178.88628 | 40994 ft | 516 kts | 64° |
| 2026-05-07 08:54 | 11.16959 | 178.95018 | 40996 ft | 513 kts | 64° |
| 2026-05-07 08:54 | 11.20291 | 179.01479 | 41004 ft | 515 kts | 64° |
| 2026-05-07 08:55 | 11.23626 | 179.07943 | 40990 ft | 515 kts | 64° |
| 2026-05-07 08:55 | 11.26964 | 179.14414 | 41001 ft | 514 kts | 64° |
| 2026-05-07 08:56 | 11.30297 | 179.20894 | 40997 ft | 518 kts | 63° |
| 2026-05-07 08:56 | 11.33633 | 179.27367 | 40992 ft | 519 kts | 63° |
| 2026-05-07 08:57 | 11.36998 | 179.33898 | 41003 ft | 524 kts | 62° |
| 2026-05-07 08:57 | 11.40392 | 179.40492 | 40998 ft | 525 kts | 62° |
| 2026-05-07 08:58 | 11.43774 | 179.47071 | 40990 ft | 523 kts | 62° |
| 2026-05-07 08:58 | 11.47149 | 179.53640 | 41004 ft | 524 kts | 63° |
| 2026-05-07 08:59 | 11.50533 | 179.60233 | 40993 ft | 524 kts | 63° |
| 2026-05-07 08:59 | 11.53910 | 179.66817 | 40998 ft | 523 kts | 63° |
| 2026-05-07 09:00 | 11.57266 | 179.73363 | 41003 ft | 524 kts | 63° |
| 2026-05-07 09:00 | 11.60648 | 179.79967 | 40989 ft | 525 kts | 63° |
| 2026-05-07 09:01 | 11.64065 | 179.86641 | 41003 ft | 528 kts | 63° |
| 2026-05-07 09:01 | 11.67438 | 179.93235 | 40995 ft | 527 kts | 63° |
| 2026-05-07 09:02 | 11.70847 | 179.99863 | 40993 ft | 526 kts | 62° |
| 2026-05-07 09:02 | 11.74276 | -179.93563 | 41004 ft | 527 kts | 62° |
| 2026-05-07 09:03 | 11.77750 | -179.86936 | 40992 ft | 524 kts | 62° |
| 2026-05-07 09:03 | 11.81156 | -179.80444 | 40994 ft | 521 kts | 62° |
| 2026-05-07 09:04 | 11.84587 | -179.73898 | 41005 ft | 523 kts | 62° |
| 2026-05-07 09:04 | 11.88017 | -179.67348 | 40991 ft | 523 kts | 62° |
| 2026-05-07 09:05 | 11.91449 | -179.60789 | 40999 ft | 522 kts | 62° |
| 2026-05-07 09:05 | 11.94874 | -179.54238 | 41001 ft | 523 kts | 62° |
| 2026-05-07 09:06 | 11.98303 | -179.47674 | 40991 ft | 523 kts | 62° |
| 2026-05-07 09:06 | 12.01724 | -179.41122 | 41004 ft | 523 kts | 62° |
| 2026-05-07 09:07 | 12.05142 | -179.34571 | 40995 ft | 523 kts | 62° |
| 2026-05-07 09:07 | 12.08564 | -179.28008 | 40994 ft | 523 kts | 62° |
| 2026-05-07 09:08 | 12.11964 | -179.21483 | 41004 ft | 523 kts | 62° |
| 2026-05-07 09:08 | 12.15380 | -179.14921 | 40991 ft | 523 kts | 62° |
| 2026-05-07 09:09 | 12.18806 | -179.08336 | 41000 ft | 523 kts | 62° |
| 2026-05-07 09:09 | 12.22213 | -179.01784 | 40998 ft | 523 kts | 62° |
| 2026-05-07 09:10 | 12.25612 | -178.95240 | 40991 ft | 523 kts | 62° |
| 2026-05-07 09:10 | 12.29025 | -178.88667 | 41004 ft | 523 kts | 62° |
| 2026-05-07 09:11 | 12.32433 | -178.82097 | 40992 ft | 523 kts | 62° |
| 2026-05-07 09:11 | 12.35846 | -178.75514 | 40997 ft | 523 kts | 62° |
| 2026-05-07 09:12 | 12.39256 | -178.68932 | 41001 ft | 523 kts | 62° |
| 2026-05-07 09:12 | 12.42640 | -178.62396 | 40991 ft | 523 kts | 62° |
| 2026-05-07 09:13 | 12.46066 | -178.55773 | 41003 ft | 523 kts | 62° |
| 2026-05-07 09:13 | 12.49466 | -178.49195 | 40994 ft | 523 kts | 62° |
| 2026-05-07 09:14 | 12.52846 | -178.42651 | 40995 ft | 523 kts | 62° |
| 2026-05-07 09:14 | 12.56241 | -178.36074 | 41004 ft | 523 kts | 62° |
| 2026-05-07 09:15 | 12.59641 | -178.29481 | 40991 ft | 523 kts | 62° |
| 2026-05-07 09:15 | 12.63033 | -178.22900 | 40999 ft | 523 kts | 62° |
| 2026-05-07 09:16 | 12.66427 | -178.16311 | 40999 ft | 523 kts | 62° |
| 2026-05-07 09:16 | 12.69823 | -178.09713 | 40991 ft | 523 kts | 62° |
| 2026-05-07 09:17 | 12.73191 | -178.03163 | 41004 ft | 523 kts | 62° |
| 2026-05-07 09:17 | 12.76590 | -177.96548 | 40993 ft | 523 kts | 62° |
| 2026-05-07 09:18 | 12.79976 | -177.89954 | 40996 ft | 523 kts | 62° |
| 2026-05-07 09:18 | 12.83360 | -177.83358 | 41003 ft | 523 kts | 62° |
| 2026-05-07 09:19 | 12.86748 | -177.76750 | 40991 ft | 523 kts | 62° |
| 2026-05-07 09:19 | 12.90129 | -177.70151 | 41001 ft | 523 kts | 62° |
| 2026-05-07 09:20 | 12.93493 | -177.63580 | 40997 ft | 523 kts | 62° |
| 2026-05-07 09:20 | 12.96877 | -177.56964 | 40992 ft | 523 kts | 62° |
| 2026-05-07 09:21 | 13.00251 | -177.50364 | 41004 ft | 523 kts | 62° |
| 2026-05-07 09:21 | 13.03627 | -177.43744 | 40991 ft | 518 kts | 62° |
| 2026-05-07 09:22 | 13.06952 | -177.37237 | 40998 ft | 517 kts | 62° |
| 2026-05-07 09:22 | 13.10313 | -177.30647 | 41004 ft | 524 kts | 62° |
| 2026-05-07 09:23 | 13.13674 | -177.24049 | 40989 ft | 523 kts | 62° |
| 2026-05-07 09:23 | 13.17040 | -177.17439 | 41000 ft | 522 kts | 62° |
| 2026-05-07 09:24 | 13.20403 | -177.10829 | 40998 ft | 523 kts | 62° |
| 2026-05-07 09:24 | 13.23773 | -177.04199 | 40991 ft | 523 kts | 62° |
| 2026-05-07 09:25 | 13.27142 | -176.97568 | 41004 ft | 523 kts | 62° |
| 2026-05-07 09:25 | 13.30504 | -176.90946 | 40992 ft | 523 kts | 63° |
| 2026-05-07 09:26 | 13.33849 | -176.84350 | 40997 ft | 523 kts | 63° |
| 2026-05-07 09:26 | 13.37206 | -176.77726 | 41001 ft | 523 kts | 63° |
| 2026-05-07 09:27 | 13.40567 | -176.71088 | 40991 ft | 523 kts | 63° |
| 2026-05-07 09:28 | 13.45603 | -176.61135 | 41003 ft | 523 kts | 63° |
| 2026-05-07 09:28 | 13.48932 | -176.54547 | 40991 ft | 523 kts | 63° |
| 2026-05-07 09:29 | 13.52286 | -176.47906 | 41002 ft | 523 kts | 63° |
| 2026-05-07 09:29 | 13.55643 | -176.41253 | 40997 ft | 523 kts | 63° |
| 2026-05-07 09:30 | 13.58973 | -176.34648 | 40993 ft | 523 kts | 63° |
| 2026-05-07 09:30 | 13.62320 | -176.28005 | 41004 ft | 523 kts | 63° |
| 2026-05-07 09:31 | 13.65664 | -176.21361 | 40992 ft | 523 kts | 63° |
| 2026-05-07 09:31 | 13.68998 | -176.14731 | 40998 ft | 523 kts | 63° |
| 2026-05-07 09:32 | 13.72342 | -176.08077 | 41001 ft | 523 kts | 63° |
| 2026-05-07 09:32 | 13.75686 | -176.01419 | 40991 ft | 523 kts | 63° |
| 2026-05-07 09:33 | 13.79001 | -175.94812 | 41003 ft | 523 kts | 63° |
| 2026-05-07 09:33 | 13.82334 | -175.88163 | 40994 ft | 523 kts | 63° |
| 2026-05-07 09:34 | 13.85673 | -175.81497 | 40994 ft | 523 kts | 63° |
| 2026-05-07 09:34 | 13.89005 | -175.74839 | 41004 ft | 523 kts | 63° |
| 2026-05-07 09:35 | 13.91793 | -175.69265 | 40992 ft | 523 kts | 63° |
| 2026-05-07 09:35 | 13.95664 | -175.61517 | 41000 ft | 523 kts | 63° |
| 2026-05-07 09:36 | 13.98424 | -175.55989 | 41001 ft | 523 kts | 63° |
| 2026-05-07 09:36 | 14.01755 | -175.49312 | 40991 ft | 523 kts | 63° |
| 2026-05-07 09:37 | 14.05047 | -175.42707 | 40997 ft | 514 kts | 63° |
| 2026-05-07 09:37 | 14.08345 | -175.36090 | 41009 ft | 523 kts | 63° |
| 2026-05-07 09:38 | 14.11669 | -175.29409 | 40993 ft | 524 kts | 63° |
| 2026-05-07 09:38 | 14.14968 | -175.22774 | 40995 ft | 522 kts | 63° |
| 2026-05-07 09:39 | 14.18284 | -175.16100 | 41004 ft | 523 kts | 63° |
| 2026-05-07 09:39 | 14.21594 | -175.09430 | 40990 ft | 523 kts | 63° |
| 2026-05-07 09:40 | 14.24910 | -175.02745 | 41001 ft | 523 kts | 63° |
| 2026-05-07 09:40 | 14.28218 | -174.96069 | 40997 ft | 523 kts | 63° |
| 2026-05-07 09:41 | 14.31527 | -174.89386 | 40992 ft | 523 kts | 63° |
| 2026-05-07 09:41 | 14.34819 | -174.82731 | 41004 ft | 523 kts | 63° |
| 2026-05-07 09:42 | 14.38125 | -174.76043 | 40992 ft | 523 kts | 63° |
| 2026-05-07 09:42 | 14.41422 | -174.69365 | 40998 ft | 523 kts | 63° |
| 2026-05-07 09:43 | 14.44728 | -174.62665 | 41001 ft | 523 kts | 63° |
| 2026-05-07 09:43 | 14.48032 | -174.55965 | 40991 ft | 523 kts | 63° |
| 2026-05-07 09:44 | 14.51325 | -174.49278 | 41003 ft | 523 kts | 63° |
| 2026-05-07 09:44 | 14.54630 | -174.42563 | 40995 ft | 523 kts | 63° |
| 2026-05-07 09:45 | 14.57899 | -174.35915 | 40994 ft | 523 kts | 63° |
| 2026-05-07 09:45 | 14.61185 | -174.29226 | 41004 ft | 523 kts | 63° |
| 2026-05-07 09:46 | 14.64479 | -174.22514 | 40991 ft | 523 kts | 63° |
| 2026-05-07 09:46 | 14.67766 | -174.15811 | 40999 ft | 523 kts | 63° |
| 2026-05-07 09:47 | 14.71050 | -174.09108 | 40998 ft | 523 kts | 63° |
| 2026-05-07 09:47 | 14.74339 | -174.02389 | 40991 ft | 523 kts | 63° |
| 2026-05-07 09:48 | 14.77617 | -173.95687 | 41005 ft | 523 kts | 63° |
| 2026-05-07 09:48 | 14.80896 | -173.88977 | 40993 ft | 523 kts | 63° |
| 2026-05-07 09:49 | 14.84161 | -173.82289 | 40996 ft | 523 kts | 63° |
| 2026-05-07 09:49 | 14.87432 | -173.75584 | 41002 ft | 523 kts | 63° |
| 2026-05-07 09:50 | 14.90712 | -173.68854 | 40991 ft | 523 kts | 63° |
| 2026-05-07 09:50 | 14.93980 | -173.62141 | 41002 ft | 523 kts | 63° |
| 2026-05-07 09:51 | 14.97246 | -173.55427 | 40996 ft | 523 kts | 63° |
| 2026-05-07 09:51 | 15.00519 | -173.48693 | 40993 ft | 523 kts | 63° |
| 2026-05-07 09:52 | 15.03736 | -173.42052 | 41010 ft | 509 kts | 62° |
| 2026-05-07 09:52 | 15.06889 | -173.35556 | 40970 ft | 508 kts | 61° |
| 2026-05-07 09:53 | 15.10094 | -173.28951 | 41003 ft | 517 kts | 61° |
| 2026-05-07 09:53 | 15.13348 | -173.22242 | 41000 ft | 526 kts | 61° |
| 2026-05-07 09:54 | 15.16665 | -173.15395 | 40995 ft | 536 kts | 62° |
| 2026-05-07 09:54 | 15.20036 | -173.08417 | 41003 ft | 546 kts | 62° |
| 2026-05-07 09:55 | 15.23442 | -173.01359 | 40989 ft | 549 kts | 62° |
| 2026-05-07 09:55 | 15.26831 | -172.94329 | 40998 ft | 547 kts | 62° |
| 2026-05-07 09:56 | 15.30213 | -172.87300 | 40999 ft | 544 kts | 61° |
| 2026-05-07 09:56 | 15.33597 | -172.80283 | 40994 ft | 545 kts | 61° |
| 2026-05-07 09:57 | 15.36971 | -172.73274 | 41001 ft | 545 kts | 61° |
| 2026-05-07 09:57 | 15.40365 | -172.66211 | 40995 ft | 551 kts | 61° |
| 2026-05-07 09:58 | 15.43797 | -172.59064 | 40999 ft | 554 kts | 61° |
| 2026-05-07 09:58 | 15.47224 | -172.51917 | 40992 ft | 553 kts | 61° |
| 2026-05-07 09:59 | 15.50630 | -172.44807 | 41003 ft | 552 kts | 61° |
| 2026-05-07 09:59 | 15.54037 | -172.37691 | 40995 ft | 553 kts | 61° |
| 2026-05-07 10:00 | 15.57467 | -172.30518 | 40995 ft | 553 kts | 61° |
| 2026-05-07 10:00 | 15.60883 | -172.23365 | 41003 ft | 552 kts | 61° |
| 2026-05-07 10:01 | 15.64301 | -172.16203 | 40992 ft | 555 kts | 61° |
| 2026-05-07 10:01 | 15.67697 | -172.09081 | 40998 ft | 553 kts | 61° |
| 2026-05-07 10:02 | 15.71108 | -172.01917 | 41000 ft | 554 kts | 61° |
| 2026-05-07 10:02 | 15.74526 | -171.94733 | 40991 ft | 554 kts | 61° |
| 2026-05-07 10:03 | 15.77925 | -171.87582 | 41001 ft | 552 kts | 61° |
| 2026-05-07 10:03 | 15.81326 | -171.80416 | 40995 ft | 552 kts | 61° |
| 2026-05-07 10:04 | 15.84703 | -171.73298 | 40995 ft | 553 kts | 61° |
| 2026-05-07 10:04 | 15.88115 | -171.66099 | 41002 ft | 557 kts | 61° |
| 2026-05-07 10:05 | 15.91525 | -171.58876 | 40997 ft | 560 kts | 62° |
| 2026-05-07 10:05 | 15.94886 | -171.51577 | 40991 ft | 559 kts | 62° |
| 2026-05-07 10:06 | 15.98195 | -171.44275 | 41004 ft | 559 kts | 63° |
| 2026-05-07 10:06 | 16.01504 | -171.36928 | 40992 ft | 560 kts | 63° |
| 2026-05-07 10:07 | 16.04799 | -171.29601 | 40997 ft | 558 kts | 63° |
| 2026-05-07 10:07 | 16.08067 | -171.22330 | 41002 ft | 559 kts | 63° |
| 2026-05-07 10:08 | 16.11357 | -171.15002 | 40990 ft | 556 kts | 62° |
| 2026-05-07 10:08 | 16.14623 | -171.07723 | 40998 ft | 554 kts | 62° |
| 2026-05-07 10:09 | 16.17893 | -171.00430 | 41001 ft | 557 kts | 62° |
| 2026-05-07 10:09 | 16.21160 | -170.93135 | 40990 ft | 557 kts | 62° |
| 2026-05-07 10:10 | 16.24402 | -170.85883 | 41002 ft | 555 kts | 62° |
| 2026-05-07 10:10 | 16.27668 | -170.78571 | 41000 ft | 555 kts | 62° |
| 2026-05-07 10:11 | 16.30898 | -170.71326 | 40990 ft | 551 kts | 62° |
| 2026-05-07 10:11 | 16.34120 | -170.64089 | 41003 ft | 551 kts | 61° |
| 2026-05-07 10:12 | 16.37350 | -170.56845 | 41149 ft | 552 kts | 61° |
| 2026-05-07 10:12 | 16.40589 | -170.49570 | 41159 ft | 553 kts | 61° |
| 2026-05-07 10:13 | 16.43813 | -170.42309 | 41167 ft | 552 kts | 61° |
| 2026-05-07 10:13 | 16.47044 | -170.35027 | 41177 ft | 551 kts | 61° |
| 2026-05-07 10:14 | 16.50242 | -170.27814 | 41176 ft | 552 kts | 61° |
| 2026-05-07 10:14 | 16.53459 | -170.20554 | 41169 ft | 551 kts | 62° |
| 2026-05-07 10:15 | 16.56664 | -170.13304 | 41179 ft | 549 kts | 62° |
| 2026-05-07 10:15 | 16.59849 | -170.06092 | 41174 ft | 551 kts | 62° |
| 2026-05-07 10:16 | 16.63076 | -169.98780 | 41170 ft | 551 kts | 62° |
| 2026-05-07 10:16 | 16.66247 | -169.91584 | 41181 ft | 550 kts | 62° |
| 2026-05-07 10:17 | 16.69444 | -169.84324 | 41169 ft | 551 kts | 62° |
| 2026-05-07 10:17 | 16.72644 | -169.77048 | 41176 ft | 550 kts | 62° |
| 2026-05-07 10:18 | 16.75834 | -169.69783 | 41178 ft | 551 kts | 61° |
| 2026-05-07 10:18 | 16.78494 | -169.63714 | 41169 ft | 554 kts | 61° |
| 2026-05-07 10:19 | 16.82229 | -169.55202 | 41179 ft | 553 kts | 61° |
| 2026-05-07 10:19 | 16.85418 | -169.47921 | 41173 ft | 553 kts | 61° |
| 2026-05-07 10:20 | 16.88617 | -169.40606 | 41171 ft | 553 kts | 61° |
| 2026-05-07 10:20 | 16.91290 | -169.34487 | 41180 ft | 553 kts | 61° |
| 2026-05-07 10:21 | 16.94461 | -169.27221 | 41171 ft | 554 kts | 61° |
| 2026-05-07 10:21 | 16.97650 | -169.19904 | 41174 ft | 553 kts | 61° |
| 2026-05-07 10:22 | 17.00828 | -169.12620 | 41180 ft | 543 kts | 62° |
| 2026-05-07 10:22 | 17.03938 | -169.05451 | 41175 ft | 545 kts | 62° |
| 2026-05-07 10:23 | 17.07109 | -168.98160 | 41181 ft | 556 kts | 62° |
| 2026-05-07 10:23 | 17.10293 | -168.90823 | 41167 ft | 559 kts | 62° |
| 2026-05-07 10:24 | 17.13490 | -168.83441 | 41174 ft | 557 kts | 62° |
| 2026-05-07 10:24 | 17.16693 | -168.76037 | 41180 ft | 557 kts | 62° |
| 2026-05-07 10:25 | 17.19887 | -168.68643 | 41168 ft | 559 kts | 61° |
| 2026-05-07 10:25 | 17.23083 | -168.61248 | 41179 ft | 558 kts | 61° |
| 2026-05-07 10:26 | 17.26263 | -168.53872 | 41175 ft | 559 kts | 60° |
| 2026-05-07 10:26 | 17.29440 | -168.46477 | 41164 ft | 554 kts | 59° |
| 2026-05-07 10:27 | 17.32609 | -168.39125 | 41180 ft | 554 kts | 59° |
| 2026-05-07 10:27 | 17.35786 | -168.31748 | 41174 ft | 556 kts | 59° |
| 2026-05-07 10:28 | 17.38935 | -168.24413 | 41169 ft | 555 kts | 59° |
| 2026-05-07 10:28 | 17.42106 | -168.17014 | 41182 ft | 553 kts | 60° |
| 2026-05-07 10:29 | 17.45245 | -168.09681 | 41168 ft | 552 kts | 60° |
| 2026-05-07 10:29 | 17.48394 | -168.02321 | 41177 ft | 552 kts | 60° |
| 2026-05-07 10:30 | 17.53107 | -167.91285 | 41169 ft | 553 kts | 60° |
| 2026-05-07 10:30 | 17.56242 | -167.83931 | 41175 ft | 552 kts | 60° |
| 2026-05-07 10:31 | 17.59356 | -167.76619 | 41178 ft | 553 kts | 60° |
| 2026-05-07 10:31 | 17.62488 | -167.69256 | 41168 ft | 553 kts | 59° |
| 2026-05-07 10:32 | 17.65612 | -167.61894 | 41177 ft | 551 kts | 59° |
| 2026-05-07 10:32 | 17.68734 | -167.54545 | 41176 ft | 552 kts | 59° |
| 2026-05-07 10:33 | 17.71858 | -167.47179 | 41168 ft | 552 kts | 59° |
| 2026-05-07 10:33 | 17.74957 | -167.39858 | 41180 ft | 552 kts | 59° |
| 2026-05-07 10:34 | 17.78072 | -167.32491 | 41172 ft | 552 kts | 59° |
| 2026-05-07 10:34 | 17.81170 | -167.25151 | 41171 ft | 550 kts | 59° |
| 2026-05-07 10:35 | 17.84260 | -167.17821 | 41181 ft | 550 kts | 59° |
| 2026-05-07 10:35 | 17.87363 | -167.10457 | 41168 ft | 551 kts | 59° |
| 2026-05-07 10:36 | 17.90458 | -167.03104 | 41177 ft | 550 kts | 59° |
| 2026-05-07 10:36 | 17.93546 | -166.95754 | 41175 ft | 550 kts | 59° |
| 2026-05-07 10:37 | 17.96601 | -166.88466 | 41152 ft | 537 kts | 59° |
| 2026-05-07 10:37 | 17.99614 | -166.81279 | 41182 ft | 547 kts | 59° |
| 2026-05-07 10:38 | 18.02711 | -166.73901 | 41174 ft | 552 kts | 59° |
| 2026-05-07 10:38 | 18.05798 | -166.66518 | 41169 ft | 552 kts | 60° |
| 2026-05-07 10:39 | 18.08883 | -166.59125 | 41181 ft | 553 kts | 60° |
| 2026-05-07 10:39 | 18.11980 | -166.51693 | 41169 ft | 553 kts | 60° |
| 2026-05-07 10:40 | 18.15048 | -166.44326 | 41175 ft | 553 kts | 60° |
| 2026-05-07 10:40 | 18.18134 | -166.36908 | 41178 ft | 553 kts | 60° |
| 2026-05-07 10:41 | 18.21212 | -166.29500 | 41167 ft | 553 kts | 60° |
| 2026-05-07 10:41 | 18.24287 | -166.22088 | 41179 ft | 553 kts | 60° |
| 2026-05-07 10:42 | 18.27367 | -166.14663 | 41174 ft | 555 kts | 60° |
| 2026-05-07 10:42 | 18.30434 | -166.07251 | 41169 ft | 554 kts | 60° |
| 2026-05-07 10:43 | 18.33527 | -165.99763 | 41181 ft | 554 kts | 60° |
| 2026-05-07 10:43 | 18.36578 | -165.92372 | 41171 ft | 555 kts | 60° |
| 2026-05-07 10:44 | 18.39654 | -165.84910 | 41174 ft | 554 kts | 60° |
| 2026-05-07 10:44 | 18.42716 | -165.77473 | 41179 ft | 554 kts | 60° |
| 2026-05-07 10:45 | 18.45786 | -165.70008 | 41168 ft | 555 kts | 60° |
| 2026-05-07 10:45 | 18.48861 | -165.62526 | 41180 ft | 556 kts | 61° |
| 2026-05-07 10:46 | 18.51933 | -165.55032 | 41173 ft | 557 kts | 61° |
| 2026-05-07 10:46 | 18.54992 | -165.47560 | 41170 ft | 556 kts | 61° |
| 2026-05-07 10:47 | 18.58039 | -165.40111 | 41181 ft | 556 kts | 61° |
| 2026-05-07 10:47 | 18.61097 | -165.32627 | 41169 ft | 557 kts | 61° |
| 2026-05-07 10:48 | 18.64165 | -165.25106 | 41174 ft | 556 kts | 61° |
| 2026-05-07 10:48 | 18.67211 | -165.17628 | 41179 ft | 556 kts | 61° |
| 2026-05-07 10:49 | 18.70273 | -165.10104 | 41167 ft | 557 kts | 61° |
| 2026-05-07 10:49 | 18.73320 | -165.02606 | 41179 ft | 556 kts | 61° |
| 2026-05-07 10:50 | 18.76347 | -164.95143 | 41175 ft | 557 kts | 61° |
| 2026-05-07 10:50 | 18.79386 | -164.87644 | 41166 ft | 553 kts | 61° |
| 2026-05-07 10:51 | 18.82404 | -164.80186 | 41180 ft | 553 kts | 61° |
| 2026-05-07 10:51 | 18.85419 | -164.72729 | 41172 ft | 555 kts | 61° |
| 2026-05-07 10:52 | 18.86934 | -164.69011 | 41167 ft | 543 kts | 64° |
| 2026-05-07 10:52 | 18.88389 | -164.65377 | 41152 ft | 532 kts | 61° |
| 2026-05-07 10:52 | 18.91292 | -164.58149 | 41179 ft | 540 kts | 61° |
| 2026-05-07 10:53 | 18.94273 | -164.50771 | 41179 ft | 551 kts | 61° |
| 2026-05-07 10:53 | 18.97293 | -164.43269 | 41166 ft | 556 kts | 61° |
| 2026-05-07 10:54 | 19.00288 | -164.35798 | 41173 ft | 554 kts | 61° |
| 2026-05-07 10:54 | 19.03285 | -164.28316 | 41181 ft | 554 kts | 62° |
| 2026-05-07 10:55 | 19.06294 | -164.20799 | 41167 ft | 555 kts | 61° |
| 2026-05-07 10:55 | 19.09295 | -164.13293 | 41178 ft | 554 kts | 62° |
| 2026-05-07 10:56 | 19.12291 | -164.05790 | 41175 ft | 554 kts | 62° |
| 2026-05-07 10:56 | 19.15292 | -163.98262 | 41170 ft | 554 kts | 62° |
| 2026-05-07 10:57 | 19.18281 | -163.90755 | 41181 ft | 554 kts | 62° |
| 2026-05-07 10:57 | 19.21259 | -163.83266 | 41171 ft | 555 kts | 62° |
| 2026-05-07 10:58 | 19.24252 | -163.75729 | 41173 ft | 554 kts | 62° |
| 2026-05-07 10:58 | 19.27234 | -163.68214 | 41182 ft | 553 kts | 63° |
| 2026-05-07 10:59 | 19.30204 | -163.60714 | 41167 ft | 552 kts | 63° |
| 2026-05-07 10:59 | 19.33166 | -163.53216 | 41178 ft | 551 kts | 63° |
| 2026-05-07 11:00 | 19.36132 | -163.45703 | 41174 ft | 553 kts | 63° |
| 2026-05-07 11:00 | 19.39095 | -163.38189 | 41170 ft | 552 kts | 63° |
| 2026-05-07 11:01 | 19.42044 | -163.30698 | 41180 ft | 552 kts | 63° |
| 2026-05-07 11:01 | 19.44990 | -163.23207 | 41170 ft | 553 kts | 63° |
| 2026-05-07 11:02 | 19.47942 | -163.15688 | 41175 ft | 552 kts | 63° |
| 2026-05-07 11:02 | 19.50888 | -163.08175 | 41179 ft | 552 kts | 63° |
| 2026-05-07 11:03 | 19.53841 | -163.00632 | 41168 ft | 553 kts | 63° |
| 2026-05-07 11:03 | 19.56764 | -162.93157 | 41179 ft | 552 kts | 63° |
| 2026-05-07 11:04 | 19.59704 | -162.85625 | 41174 ft | 553 kts | 63° |
| 2026-05-07 11:04 | 19.62647 | -162.78076 | 41170 ft | 552 kts | 63° |
| 2026-05-07 11:05 | 19.65601 | -162.70547 | 41180 ft | 552 kts | 63° |
| 2026-05-07 11:05 | 19.68583 | -162.63070 | 41170 ft | 552 kts | 62° |
| 2026-05-07 11:06 | 19.71589 | -162.55583 | 41174 ft | 552 kts | 62° |
| 2026-05-07 11:06 | 19.74598 | -162.48093 | 41178 ft | 551 kts | 62° |
| 2026-05-07 11:07 | 19.77100 | -162.41858 | 41168 ft | 552 kts | 62° |
| 2026-05-07 11:07 | 19.80115 | -162.34330 | 41178 ft | 552 kts | 62° |
| 2026-05-07 11:08 | 19.83104 | -162.26855 | 41175 ft | 552 kts | 62° |
| 2026-05-07 11:08 | 19.86121 | -162.19301 | 41169 ft | 552 kts | 62° |
| 2026-05-07 11:09 | 19.89100 | -162.11830 | 41181 ft | 552 kts | 62° |
| 2026-05-07 11:09 | 19.92103 | -162.04288 | 41170 ft | 552 kts | 62° |
| 2026-05-07 11:10 | 19.95086 | -161.96786 | 41175 ft | 552 kts | 62° |
| 2026-05-07 11:10 | 19.98079 | -161.89248 | 41179 ft | 552 kts | 62° |
| 2026-05-07 11:11 | 20.01064 | -161.81722 | 41168 ft | 552 kts | 63° |
| 2026-05-07 11:11 | 20.04025 | -161.74241 | 41178 ft | 552 kts | 63° |
| 2026-05-07 11:12 | 20.07000 | -161.66718 | 41174 ft | 552 kts | 63° |
| 2026-05-07 11:12 | 20.09977 | -161.59176 | 41170 ft | 552 kts | 63° |
| 2026-05-07 11:13 | 20.12955 | -161.51622 | 41181 ft | 552 kts | 63° |
| 2026-05-07 11:13 | 20.15907 | -161.44124 | 41169 ft | 553 kts | 63° |
| 2026-05-07 11:14 | 20.18891 | -161.36531 | 41175 ft | 552 kts | 63° |
| 2026-05-07 11:14 | 20.21834 | -161.29032 | 41179 ft | 552 kts | 63° |
| 2026-05-07 11:15 | 20.24799 | -161.21466 | 41167 ft | 553 kts | 63° |
| 2026-05-07 11:15 | 20.27746 | -161.13935 | 41179 ft | 552 kts | 63° |
| 2026-05-07 11:16 | 20.30708 | -161.06355 | 41173 ft | 553 kts | 63° |
| 2026-05-07 11:16 | 20.33639 | -160.98844 | 41171 ft | 552 kts | 63° |
| 2026-05-07 11:17 | 20.36548 | -160.91260 | 41184 ft | 553 kts | 64° |
| 2026-05-07 11:17 | 20.39185 | -160.83522 | 41167 ft | 556 kts | 68° |
| 2026-05-07 11:18 | 20.41314 | -160.75584 | 41179 ft | 557 kts | 71° |
| 2026-05-07 11:18 | 20.43163 | -160.67580 | 41173 ft | 559 kts | 73° |
| 2026-05-07 11:19 | 20.44905 | -160.59490 | 41171 ft | 559 kts | 73° |
| 2026-05-07 11:19 | 20.46622 | -160.51438 | 41181 ft | 559 kts | 73° |
| 2026-05-07 11:20 | 20.48361 | -160.43311 | 41169 ft | 559 kts | 73° |
| 2026-05-07 11:20 | 20.50082 | -160.35271 | 41177 ft | 559 kts | 73° |
| 2026-05-07 11:21 | 20.51810 | -160.27187 | 41176 ft | 559 kts | 73° |